sensor_id;sensor_type;location;lat;lon;timestamp;P1;P2;P0
73973;PMS5003;62336;-26.094;27.994;2023-12-20T00:00:28;33;30;
73973;PMS5003;62336;-26.094;27.994;2023-12-20T00:02:53;38;38;
73973;PMS5003;62336;-26.094;27.994;2023-12-20T00:05:19;30;30;
73973;PMS5003;62336;-26.094;27.994;2023-12-20T00:07:44;32;30;
73973;PMS5003;62336;-26.094;27.994;2023-12-20T00:10:10;34;32;
73973;PMS5003;62336;-26.094;27.994;2023-12-20T00:12:35;32;30;
73973;PMS5003;62336;-26.094;27.994;2023-12-20T00:15:00;38;37;
73973;PMS5003;62336;-26.094;27.994;2023-12-20T00:17:26;35;33;
73973;PMS5003;62336;-26.094;27.994;2023-12-20T00:19:50;32;28;
73973;PMS5003;62336;-26.094;27.994;2023-12-20T00:22:16;37;33;
73973;PMS5003;62336;-26.094;27.994;2023-12-20T00:24:43;38;38;
73973;PMS5003;62336;-26.094;27.994;2023-12-20T00:27:07;39;36;
73973;PMS5003;62336;-26.094;27.994;2023-12-20T00:29:33;34;33;
73973;PMS5003;62336;-26.094;27.994;2023-12-20T00:31:59;38;33;
73973;PMS5003;62336;-26.094;27.994;2023-12-20T00:34:24;40;37;
73973;PMS5003;62336;-26.094;27.994;2023-12-20T00:36:50;38;36;
73973;PMS5003;62336;-26.094;27.994;2023-12-20T00:39:16;37;37;
73973;PMS5003;62336;-26.094;27.994;2023-12-20T00:41:41;36;34;
73973;PMS5003;62336;-26.094;27.994;2023-12-20T00:44:06;33;33;
73973;PMS5003;62336;-26.094;27.994;2023-12-20T00:46:32;37;35;
73973;PMS5003;62336;-26.094;27.994;2023-12-20T00:48:57;41;38;
73973;PMS5003;62336;-26.094;27.994;2023-12-20T00:51:22;35;35;
73973;PMS5003;62336;-26.094;27.994;2023-12-20T00:53:49;36;35;
73973;PMS5003;62336;-26.094;27.994;2023-12-20T00:56:13;33;33;
73973;PMS5003;62336;-26.094;27.994;2023-12-20T00:58:39;38;36;
73973;PMS5003;62336;-26.094;27.994;2023-12-20T01:01:04;37;36;
73973;PMS5003;62336;-26.094;27.994;2023-12-20T01:03:29;30;28;
73973;PMS5003;62336;-26.094;27.994;2023-12-20T01:05:54;25;24;
73973;PMS5003;62336;-26.094;27.994;2023-12-20T01:08:20;27;25;
73973;PMS5003;62336;-26.094;27.994;2023-12-20T01:10:45;23;22;
73973;PMS5003;62336;-26.094;27.994;2023-12-20T01:13:11;22;22;
73973;PMS5003;62336;-26.094;27.994;2023-12-20T01:15:36;24;23;
73973;PMS5003;62336;-26.094;27.994;2023-12-20T01:18:02;23;22;
73973;PMS5003;62336;-26.094;27.994;2023-12-20T01:20:27;19;19;
73973;PMS5003;62336;-26.094;27.994;2023-12-20T01:22:54;24;24;
73973;PMS5003;62336;-26.094;27.994;2023-12-20T01:25:18;17;17;
73973;PMS5003;62336;-26.094;27.994;2023-12-20T01:27:44;19;19;
73973;PMS5003;62336;-26.094;27.994;2023-12-20T01:30:10;22;21;
73973;PMS5003;62336;-26.094;27.994;2023-12-20T01:32:35;16;16;
73973;PMS5003;62336;-26.094;27.994;2023-12-20T01:35:01;17;16;
73973;PMS5003;62336;-26.094;27.994;2023-12-20T01:37:27;14;13;
73973;PMS5003;62336;-26.094;27.994;2023-12-20T01:39:53;20;18;
73973;PMS5003;62336;-26.094;27.994;2023-12-20T01:42:18;26;25;
73973;PMS5003;62336;-26.094;27.994;2023-12-20T01:44:44;18;17;
73973;PMS5003;62336;-26.094;27.994;2023-12-20T01:47:10;27;25;
73973;PMS5003;62336;-26.094;27.994;2023-12-20T01:49:36;24;23;
73973;PMS5003;62336;-26.094;27.994;2023-12-20T01:52:01;27;27;
73973;PMS5003;62336;-26.094;27.994;2023-12-20T01:54:26;26;25;
73973;PMS5003;62336;-26.094;27.994;2023-12-20T01:56:51;28;26;
73973;PMS5003;62336;-26.094;27.994;2023-12-20T01:59:17;22;21;
73973;PMS5003;62336;-26.094;27.994;2023-12-20T02:01:42;21;19;
73973;PMS5003;62336;-26.094;27.994;2023-12-20T02:04:08;23;22;
73973;PMS5003;62336;-26.094;27.994;2023-12-20T02:06:33;23;22;
73973;PMS5003;62336;-26.094;27.994;2023-12-20T02:08:59;21;20;
73973;PMS5003;62336;-26.094;27.994;2023-12-20T02:11:25;23;21;
73973;PMS5003;62336;-26.094;27.994;2023-12-20T02:13:51;20;19;
73973;PMS5003;62336;-26.094;27.994;2023-12-20T02:16:15;20;19;
73973;PMS5003;62336;-26.094;27.994;2023-12-20T02:18:42;21;20;
73973;PMS5003;62336;-26.094;27.994;2023-12-20T02:21:07;23;21;
73973;PMS5003;62336;-26.094;27.994;2023-12-20T02:23:32;18;17;
73973;PMS5003;62336;-26.094;27.994;2023-12-20T02:25:58;17;15;
73973;PMS5003;62336;-26.094;27.994;2023-12-20T02:28:24;22;20;
73973;PMS5003;62336;-26.094;27.994;2023-12-20T02:30:50;19;19;
73973;PMS5003;62336;-26.094;27.994;2023-12-20T02:33:15;19;18;
73973;PMS5003;62336;-26.094;27.994;2023-12-20T02:35:41;16;16;
73973;PMS5003;62336;-26.094;27.994;2023-12-20T02:38:07;19;19;
73973;PMS5003;62336;-26.094;27.994;2023-12-20T02:40:32;16;16;
73973;PMS5003;62336;-26.094;27.994;2023-12-20T02:42:58;20;19;
73973;PMS5003;62336;-26.094;27.994;2023-12-20T02:45:24;16;16;
73973;PMS5003;62336;-26.094;27.994;2023-12-20T02:47:50;17;16;
73973;PMS5003;62336;-26.094;27.994;2023-12-20T02:50:17;14;14;
73973;PMS5003;62336;-26.094;27.994;2023-12-20T02:52:44;15;15;
73973;PMS5003;62336;-26.094;27.994;2023-12-20T02:55:07;14;11;
73973;PMS5003;62336;-26.094;27.994;2023-12-20T02:57:33;14;14;
73973;PMS5003;62336;-26.094;27.994;2023-12-20T02:59:58;18;17;
73973;PMS5003;62336;-26.094;27.994;2023-12-20T03:02:24;16;16;
73973;PMS5003;62336;-26.094;27.994;2023-12-20T03:04:50;18;15;
73973;PMS5003;62336;-26.094;27.994;2023-12-20T03:07:15;14;13;
73973;PMS5003;62336;-26.094;27.994;2023-12-20T03:09:41;14;12;
73973;PMS5003;62336;-26.094;27.994;2023-12-20T03:12:07;14;13;
73973;PMS5003;62336;-26.094;27.994;2023-12-20T03:14:33;12;12;
73973;PMS5003;62336;-26.094;27.994;2023-12-20T03:16:57;19;18;
73973;PMS5003;62336;-26.094;27.994;2023-12-20T03:19:23;15;14;
73973;PMS5003;62336;-26.094;27.994;2023-12-20T03:21:49;15;13;
73973;PMS5003;62336;-26.094;27.994;2023-12-20T03:24:15;13;13;
73973;PMS5003;62336;-26.094;27.994;2023-12-20T03:26:42;15;15;
73973;PMS5003;62336;-26.094;27.994;2023-12-20T03:29:06;14;13;
73973;PMS5003;62336;-26.094;27.994;2023-12-20T03:31:32;14;12;
73973;PMS5003;62336;-26.094;27.994;2023-12-20T03:33:57;17;14;
73973;PMS5003;62336;-26.094;27.994;2023-12-20T03:36:23;16;14;
73973;PMS5003;62336;-26.094;27.994;2023-12-20T03:38:50;14;14;
73973;PMS5003;62336;-26.094;27.994;2023-12-20T03:41:14;14;14;
73973;PMS5003;62336;-26.094;27.994;2023-12-20T03:43:40;16;15;
73973;PMS5003;62336;-26.094;27.994;2023-12-20T03:46:07;14;14;
73973;PMS5003;62336;-26.094;27.994;2023-12-20T03:48:31;14;13;
73973;PMS5003;62336;-26.094;27.994;2023-12-20T03:50:57;16;15;
73973;PMS5003;62336;-26.094;27.994;2023-12-20T03:53:22;14;14;
73973;PMS5003;62336;-26.094;27.994;2023-12-20T03:55:48;13;11;
73973;PMS5003;62336;-26.094;27.994;2023-12-20T03:58:14;9;9;
73973;PMS5003;62336;-26.094;27.994;2023-12-20T04:00:40;8;8;
73973;PMS5003;62336;-26.094;27.994;2023-12-20T04:03:06;9;9;
73973;PMS5003;62336;-26.094;27.994;2023-12-20T04:05:31;9;8;
73973;PMS5003;62336;-26.094;27.994;2023-12-20T04:07:57;13;10;
73973;PMS5003;62336;-26.094;27.994;2023-12-20T04:10:22;9;9;
73973;PMS5003;62336;-26.094;27.994;2023-12-20T04:12:48;9;8;
73973;PMS5003;62336;-26.094;27.994;2023-12-20T04:15:13;11;10;
73973;PMS5003;62336;-26.094;27.994;2023-12-20T04:17:40;12;10;
73973;PMS5003;62336;-26.094;27.994;2023-12-20T04:20:05;11;11;
73973;PMS5003;62336;-26.094;27.994;2023-12-20T04:22:30;9;9;
73973;PMS5003;62336;-26.094;27.994;2023-12-20T04:24:56;9;9;
73973;PMS5003;62336;-26.094;27.994;2023-12-20T04:27:23;9;9;
73973;PMS5003;62336;-26.094;27.994;2023-12-20T04:29:48;12;12;
73973;PMS5003;62336;-26.094;27.994;2023-12-20T04:32:14;10;9;
73973;PMS5003;62336;-26.094;27.994;2023-12-20T04:34:40;10;8;
73973;PMS5003;62336;-26.094;27.994;2023-12-20T04:37:05;6;6;
73973;PMS5003;62336;-26.094;27.994;2023-12-20T04:39:32;6;6;
73973;PMS5003;62336;-26.094;27.994;2023-12-20T04:41:57;7;6;
73973;PMS5003;62336;-26.094;27.994;2023-12-20T04:44:23;6;6;
73973;PMS5003;62336;-26.094;27.994;2023-12-20T04:46:49;10;7;
73973;PMS5003;62336;-26.094;27.994;2023-12-20T04:49:14;8;8;
73973;PMS5003;62336;-26.094;27.994;2023-12-20T04:51:42;10;9;
73973;PMS5003;62336;-26.094;27.994;2023-12-20T04:54:06;8;8;
73973;PMS5003;62336;-26.094;27.994;2023-12-20T04:56:32;7;7;
73973;PMS5003;62336;-26.094;27.994;2023-12-20T04:58:58;6;6;
73973;PMS5003;62336;-26.094;27.994;2023-12-20T05:01:24;9;9;
73973;PMS5003;62336;-26.094;27.994;2023-12-20T05:03:50;10;9;
73973;PMS5003;62336;-26.094;27.994;2023-12-20T05:06:15;6;6;
73973;PMS5003;62336;-26.094;27.994;2023-12-20T05:08:42;9;8;
73973;PMS5003;62336;-26.094;27.994;2023-12-20T05:11:07;9;8;
73973;PMS5003;62336;-26.094;27.994;2023-12-20T05:13:33;8;6;
73973;PMS5003;62336;-26.094;27.994;2023-12-20T05:15:58;8;7;
73973;PMS5003;62336;-26.094;27.994;2023-12-20T05:18:24;9;9;
73973;PMS5003;62336;-26.094;27.994;2023-12-20T05:20:50;7;7;
73973;PMS5003;62336;-26.094;27.994;2023-12-20T05:23:17;11;9;
73973;PMS5003;62336;-26.094;27.994;2023-12-20T05:25:42;15;14;
73973;PMS5003;62336;-26.094;27.994;2023-12-20T05:28:07;18;17;
73973;PMS5003;62336;-26.094;27.994;2023-12-20T05:30:33;15;15;
73973;PMS5003;62336;-26.094;27.994;2023-12-20T05:32:59;14;14;
73973;PMS5003;62336;-26.094;27.994;2023-12-20T05:35:24;12;11;
73973;PMS5003;62336;-26.094;27.994;2023-12-20T05:37:50;12;11;
73973;PMS5003;62336;-26.094;27.994;2023-12-20T05:40:16;11;11;
73973;PMS5003;62336;-26.094;27.994;2023-12-20T05:42:42;10;9;
73973;PMS5003;62336;-26.094;27.994;2023-12-20T05:45:08;8;7;
73973;PMS5003;62336;-26.094;27.994;2023-12-20T05:47:33;11;11;
73973;PMS5003;62336;-26.094;27.994;2023-12-20T05:49:59;11;9;
73973;PMS5003;62336;-26.094;27.994;2023-12-20T05:52:25;9;9;
73973;PMS5003;62336;-26.094;27.994;2023-12-20T05:54:50;13;12;
73973;PMS5003;62336;-26.094;27.994;2023-12-20T05:57:16;9;9;
73973;PMS5003;62336;-26.094;27.994;2023-12-20T05:59:43;10;10;
73973;PMS5003;62336;-26.094;27.994;2023-12-20T06:02:08;12;9;
73973;PMS5003;62336;-26.094;27.994;2023-12-20T06:04:33;9;9;
73973;PMS5003;62336;-26.094;27.994;2023-12-20T06:06:59;12;10;
73973;PMS5003;62336;-26.094;27.994;2023-12-20T06:09:26;11;11;
73973;PMS5003;62336;-26.094;27.994;2023-12-20T06:11:50;14;13;
73973;PMS5003;62336;-26.094;27.994;2023-12-20T06:14:16;11;11;
73973;PMS5003;62336;-26.094;27.994;2023-12-20T06:16:42;12;11;
73973;PMS5003;62336;-26.094;27.994;2023-12-20T06:19:07;12;12;
73973;PMS5003;62336;-26.094;27.994;2023-12-20T06:21:33;20;20;
73973;PMS5003;62336;-26.094;27.994;2023-12-20T06:23:58;15;15;
73973;PMS5003;62336;-26.094;27.994;2023-12-20T06:26:24;16;16;
73973;PMS5003;62336;-26.094;27.994;2023-12-20T06:28:50;12;12;
73973;PMS5003;62336;-26.094;27.994;2023-12-20T06:31:15;14;14;
73973;PMS5003;62336;-26.094;27.994;2023-12-20T06:33:42;14;14;
73973;PMS5003;62336;-26.094;27.994;2023-12-20T06:36:07;18;17;
73973;PMS5003;62336;-26.094;27.994;2023-12-20T06:38:32;13;13;
73973;PMS5003;62336;-26.094;27.994;2023-12-20T06:40:58;16;15;
73973;PMS5003;62336;-26.094;27.994;2023-12-20T06:43:24;15;13;
73973;PMS5003;62336;-26.094;27.994;2023-12-20T06:45:50;16;15;
73973;PMS5003;62336;-26.094;27.994;2023-12-20T06:48:15;19;17;
73973;PMS5003;62336;-26.094;27.994;2023-12-20T06:50:41;14;14;
73973;PMS5003;62336;-26.094;27.994;2023-12-20T06:53:07;18;17;
73973;PMS5003;62336;-26.094;27.994;2023-12-20T06:55:32;18;17;
73973;PMS5003;62336;-26.094;27.994;2023-12-20T06:57:58;17;16;
73973;PMS5003;62336;-26.094;27.994;2023-12-20T07:00:24;14;14;
73973;PMS5003;62336;-26.094;27.994;2023-12-20T07:02:50;15;15;
73973;PMS5003;62336;-26.094;27.994;2023-12-20T07:05:16;12;12;
73973;PMS5003;62336;-26.094;27.994;2023-12-20T07:07:41;14;14;
73973;PMS5003;62336;-26.094;27.994;2023-12-20T07:10:07;20;17;
73973;PMS5003;62336;-26.094;27.994;2023-12-20T07:12:33;13;13;
73973;PMS5003;62336;-26.094;27.994;2023-12-20T07:14:59;15;15;
73973;PMS5003;62336;-26.094;27.994;2023-12-20T07:17:24;14;14;
73973;PMS5003;62336;-26.094;27.994;2023-12-20T07:19:49;15;15;
73973;PMS5003;62336;-26.094;27.994;2023-12-20T07:22:15;12;11;
73973;PMS5003;62336;-26.094;27.994;2023-12-20T07:24:41;18;17;
73973;PMS5003;62336;-26.094;27.994;2023-12-20T07:27:07;14;14;
73973;PMS5003;62336;-26.094;27.994;2023-12-20T07:29:34;11;10;
73973;PMS5003;62336;-26.094;27.994;2023-12-20T07:31:58;15;12;
73973;PMS5003;62336;-26.094;27.994;2023-12-20T07:34:24;16;16;
73973;PMS5003;62336;-26.094;27.994;2023-12-20T07:36:50;19;19;
73973;PMS5003;62336;-26.094;27.994;2023-12-20T07:39:15;13;13;
73973;PMS5003;62336;-26.094;27.994;2023-12-20T07:41:42;14;13;
73973;PMS5003;62336;-26.094;27.994;2023-12-20T07:44:07;13;13;
73973;PMS5003;62336;-26.094;27.994;2023-12-20T07:46:32;12;12;
73973;PMS5003;62336;-26.094;27.994;2023-12-20T07:48:58;18;17;
73973;PMS5003;62336;-26.094;27.994;2023-12-20T07:51:23;16;15;
73973;PMS5003;62336;-26.094;27.994;2023-12-20T07:53:49;13;13;
73973;PMS5003;62336;-26.094;27.994;2023-12-20T07:56:15;14;14;
73973;PMS5003;62336;-26.094;27.994;2023-12-20T07:58:40;16;15;
73973;PMS5003;62336;-26.094;27.994;2023-12-20T08:01:06;15;15;
73973;PMS5003;62336;-26.094;27.994;2023-12-20T08:03:32;13;12;
73973;PMS5003;62336;-26.094;27.994;2023-12-20T08:05:58;15;14;
73973;PMS5003;62336;-26.094;27.994;2023-12-20T08:08:23;14;14;
73973;PMS5003;62336;-26.094;27.994;2023-12-20T08:10:49;15;13;
73973;PMS5003;62336;-26.094;27.994;2023-12-20T08:13:14;13;13;
73973;PMS5003;62336;-26.094;27.994;2023-12-20T08:15:40;15;14;
73973;PMS5003;62336;-26.094;27.994;2023-12-20T08:18:07;17;15;
73973;PMS5003;62336;-26.094;27.994;2023-12-20T08:20:30;14;13;
73973;PMS5003;62336;-26.094;27.994;2023-12-20T08:22:55;15;15;
73973;PMS5003;62336;-26.094;27.994;2023-12-20T08:25:21;16;16;
73973;PMS5003;62336;-26.094;27.994;2023-12-20T08:27:46;19;16;
73973;PMS5003;62336;-26.094;27.994;2023-12-20T08:30:12;17;16;
73973;PMS5003;62336;-26.094;27.994;2023-12-20T08:32:37;16;15;
73973;PMS5003;62336;-26.094;27.994;2023-12-20T08:35:02;16;16;
73973;PMS5003;62336;-26.094;27.994;2023-12-20T08:37:28;19;17;
73973;PMS5003;62336;-26.094;27.994;2023-12-20T08:39:54;14;13;
73973;PMS5003;62336;-26.094;27.994;2023-12-20T08:42:20;18;15;
73973;PMS5003;62336;-26.094;27.994;2023-12-20T08:44:43;21;21;
73973;PMS5003;62336;-26.094;27.994;2023-12-20T08:47:08;17;17;
73973;PMS5003;62336;-26.094;27.994;2023-12-20T08:49:34;15;15;
73973;PMS5003;62336;-26.094;27.994;2023-12-20T08:51:59;14;13;
73973;PMS5003;62336;-26.094;27.994;2023-12-20T08:54:24;14;14;
73973;PMS5003;62336;-26.094;27.994;2023-12-20T08:56:49;15;15;
73973;PMS5003;62336;-26.094;27.994;2023-12-20T08:59:14;14;13;
73973;PMS5003;62336;-26.094;27.994;2023-12-20T09:01:40;12;12;
73973;PMS5003;62336;-26.094;27.994;2023-12-20T09:04:05;16;15;
73973;PMS5003;62336;-26.094;27.994;2023-12-20T09:06:33;15;14;
73973;PMS5003;62336;-26.094;27.994;2023-12-20T09:08:55;14;14;
73973;PMS5003;62336;-26.094;27.994;2023-12-20T09:11:20;16;15;
73973;PMS5003;62336;-26.094;27.994;2023-12-20T09:13:46;17;16;
73973;PMS5003;62336;-26.094;27.994;2023-12-20T09:16:11;17;16;
73973;PMS5003;62336;-26.094;27.994;2023-12-20T09:18:36;16;16;
73973;PMS5003;62336;-26.094;27.994;2023-12-20T09:21:02;15;15;
73973;PMS5003;62336;-26.094;27.994;2023-12-20T09:23:27;15;14;
73973;PMS5003;62336;-26.094;27.994;2023-12-20T09:25:52;16;16;
73973;PMS5003;62336;-26.094;27.994;2023-12-20T09:28:17;16;16;
73973;PMS5003;62336;-26.094;27.994;2023-12-20T09:30:43;15;15;
73973;PMS5003;62336;-26.094;27.994;2023-12-20T09:33:07;20;17;
73973;PMS5003;62336;-26.094;27.994;2023-12-20T09:35:32;17;16;
73973;PMS5003;62336;-26.094;27.994;2023-12-20T09:37:58;20;19;
73973;PMS5003;62336;-26.094;27.994;2023-12-20T09:40:23;17;17;
73973;PMS5003;62336;-26.094;27.994;2023-12-20T09:42:50;18;18;
73973;PMS5003;62336;-26.094;27.994;2023-12-20T09:45:15;16;16;
73973;PMS5003;62336;-26.094;27.994;2023-12-20T09:47:40;19;19;
73973;PMS5003;62336;-26.094;27.994;2023-12-20T09:50:06;19;19;
73973;PMS5003;62336;-26.094;27.994;2023-12-20T09:52:30;20;18;
73973;PMS5003;62336;-26.094;27.994;2023-12-20T09:54:55;21;21;
73973;PMS5003;62336;-26.094;27.994;2023-12-20T09:57:20;18;17;
73973;PMS5003;62336;-26.094;27.994;2023-12-20T09:59:46;20;20;
73973;PMS5003;62336;-26.094;27.994;2023-12-20T10:02:12;20;18;
73973;PMS5003;62336;-26.094;27.994;2023-12-20T10:04:37;19;19;
73973;PMS5003;62336;-26.094;27.994;2023-12-20T10:07:02;17;16;
73973;PMS5003;62336;-26.094;27.994;2023-12-20T10:09:28;18;18;
73973;PMS5003;62336;-26.094;27.994;2023-12-20T10:11:54;18;17;
73973;PMS5003;62336;-26.094;27.994;2023-12-20T10:14:18;22;22;
73973;PMS5003;62336;-26.094;27.994;2023-12-20T10:16:43;19;18;
73973;PMS5003;62336;-26.094;27.994;2023-12-20T10:19:08;18;18;
73973;PMS5003;62336;-26.094;27.994;2023-12-20T10:21:34;22;20;
73973;PMS5003;62336;-26.094;27.994;2023-12-20T10:24:00;21;21;
73973;PMS5003;62336;-26.094;27.994;2023-12-20T10:26:25;16;16;
73973;PMS5003;62336;-26.094;27.994;2023-12-20T10:28:50;20;20;
73973;PMS5003;62336;-26.094;27.994;2023-12-20T10:33:41;21;20;
73973;PMS5003;62336;-26.094;27.994;2023-12-20T10:36:07;22;22;
73973;PMS5003;62336;-26.094;27.994;2023-12-20T10:38:31;20;20;
73973;PMS5003;62336;-26.094;27.994;2023-12-20T10:40:57;21;21;
73973;PMS5003;62336;-26.094;27.994;2023-12-20T10:43:23;29;27;
73973;PMS5003;62336;-26.094;27.994;2023-12-20T10:45:47;23;22;
73973;PMS5003;62336;-26.094;27.994;2023-12-20T10:48:13;25;24;
73973;PMS5003;62336;-26.094;27.994;2023-12-20T10:50:38;27;26;
73973;PMS5003;62336;-26.094;27.994;2023-12-20T10:53:04;27;24;
73973;PMS5003;62336;-26.094;27.994;2023-12-20T10:55:30;22;22;
73973;PMS5003;62336;-26.094;27.994;2023-12-20T10:57:58;23;22;
73973;PMS5003;62336;-26.094;27.994;2023-12-20T11:00:21;23;23;
73973;PMS5003;62336;-26.094;27.994;2023-12-20T11:02:46;24;23;
73973;PMS5003;62336;-26.094;27.994;2023-12-20T11:05:13;25;25;
73973;PMS5003;62336;-26.094;27.994;2023-12-20T11:07:36;23;22;
73973;PMS5003;62336;-26.094;27.994;2023-12-20T11:10:02;27;25;
73973;PMS5003;62336;-26.094;27.994;2023-12-20T11:12:32;26;25;
73973;PMS5003;62336;-26.094;27.994;2023-12-20T11:14:53;28;26;
73973;PMS5003;62336;-26.094;27.994;2023-12-20T11:17:17;25;25;
73973;PMS5003;62336;-26.094;27.994;2023-12-20T11:22:08;31;28;
73973;PMS5003;62336;-26.094;27.994;2023-12-20T11:24:33;26;25;
73973;PMS5003;62336;-26.094;27.994;2023-12-20T11:26:59;26;24;
73973;PMS5003;62336;-26.094;27.994;2023-12-20T11:29:30;32;32;
73973;PMS5003;62336;-26.094;27.994;2023-12-20T11:31:50;25;25;
73973;PMS5003;62336;-26.094;27.994;2023-12-20T11:34:16;30;28;
73973;PMS5003;62336;-26.094;27.994;2023-12-20T11:36:40;25;25;
73973;PMS5003;62336;-26.094;27.994;2023-12-20T11:39:06;26;25;
73973;PMS5003;62336;-26.094;27.994;2023-12-20T11:41:31;25;24;
73973;PMS5003;62336;-26.094;27.994;2023-12-20T11:43:57;27;26;
73973;PMS5003;62336;-26.094;27.994;2023-12-20T11:46:22;29;27;
73973;PMS5003;62336;-26.094;27.994;2023-12-20T11:48:47;25;24;
73973;PMS5003;62336;-26.094;27.994;2023-12-20T11:51:13;33;32;
73973;PMS5003;62336;-26.094;27.994;2023-12-20T11:53:38;29;29;
73973;PMS5003;62336;-26.094;27.994;2023-12-20T11:56:04;25;24;
73973;PMS5003;62336;-26.094;27.994;2023-12-20T11:58:29;30;30;
73973;PMS5003;62336;-26.094;27.994;2023-12-20T12:00:54;25;24;
73973;PMS5003;62336;-26.094;27.994;2023-12-20T12:03:20;30;30;
73973;PMS5003;62336;-26.094;27.994;2023-12-20T12:05:46;24;24;
73973;PMS5003;62336;-26.094;27.994;2023-12-20T12:08:13;24;24;
73973;PMS5003;62336;-26.094;27.994;2023-12-20T12:10:37;28;27;
73973;PMS5003;62336;-26.094;27.994;2023-12-20T12:13:02;27;26;
73973;PMS5003;62336;-26.094;27.994;2023-12-20T12:15:28;29;28;
73973;PMS5003;62336;-26.094;27.994;2023-12-20T12:17:54;25;24;
73973;PMS5003;62336;-26.094;27.994;2023-12-20T12:20:19;28;28;
73973;PMS5003;62336;-26.094;27.994;2023-12-20T12:22:44;32;30;
73973;PMS5003;62336;-26.094;27.994;2023-12-20T12:25:10;33;32;
73973;PMS5003;62336;-26.094;27.994;2023-12-20T12:27:35;36;33;
73973;PMS5003;62336;-26.094;27.994;2023-12-20T12:30:02;30;28;
73973;PMS5003;62336;-26.094;27.994;2023-12-20T12:32:27;30;28;
73973;PMS5003;62336;-26.094;27.994;2023-12-20T12:34:52;30;30;
73973;PMS5003;62336;-26.094;27.994;2023-12-20T12:37:17;32;29;
73973;PMS5003;62336;-26.094;27.994;2023-12-20T12:39:42;27;25;
73973;PMS5003;62336;-26.094;27.994;2023-12-20T12:42:08;29;27;
73973;PMS5003;62336;-26.094;27.994;2023-12-20T12:44:33;26;25;
73973;PMS5003;62336;-26.094;27.994;2023-12-20T12:46:58;31;31;
73973;PMS5003;62336;-26.094;27.994;2023-12-20T12:49:24;32;30;
73973;PMS5003;62336;-26.094;27.994;2023-12-20T12:51:49;31;30;
73973;PMS5003;62336;-26.094;27.994;2023-12-20T12:54:14;34;32;
73973;PMS5003;62336;-26.094;27.994;2023-12-20T12:56:40;32;29;
73973;PMS5003;62336;-26.094;27.994;2023-12-20T12:59:05;30;30;
73973;PMS5003;62336;-26.094;27.994;2023-12-20T13:01:31;28;27;
73973;PMS5003;62336;-26.094;27.994;2023-12-20T13:03:56;33;32;
73973;PMS5003;62336;-26.094;27.994;2023-12-20T13:06:21;33;30;
73973;PMS5003;62336;-26.094;27.994;2023-12-20T13:08:48;38;37;
73973;PMS5003;62336;-26.094;27.994;2023-12-20T13:11:13;28;27;
73973;PMS5003;62336;-26.094;27.994;2023-12-20T13:13:38;27;25;
73973;PMS5003;62336;-26.094;27.994;2023-12-20T13:16:04;26;25;
73973;PMS5003;62336;-26.094;27.994;2023-12-20T13:18:29;29;27;
73973;PMS5003;62336;-26.094;27.994;2023-12-20T13:20:54;24;23;
73973;PMS5003;62336;-26.094;27.994;2023-12-20T13:23:20;26;25;
73973;PMS5003;62336;-26.094;27.994;2023-12-20T13:25:46;24;23;
73973;PMS5003;62336;-26.094;27.994;2023-12-20T13:28:10;25;25;
73973;PMS5003;62336;-26.094;27.994;2023-12-20T13:30:36;32;30;
73973;PMS5003;62336;-26.094;27.994;2023-12-20T13:33:02;30;29;
73973;PMS5003;62336;-26.094;27.994;2023-12-20T13:35:27;26;26;
73973;PMS5003;62336;-26.094;27.994;2023-12-20T13:37:53;23;23;
73973;PMS5003;62336;-26.094;27.994;2023-12-20T13:40:18;35;32;
73973;PMS5003;62336;-26.094;27.994;2023-12-20T13:42:43;28;27;
73973;PMS5003;62336;-26.094;27.994;2023-12-20T13:45:10;27;27;
73973;PMS5003;62336;-26.094;27.994;2023-12-20T13:47:34;32;30;
73973;PMS5003;62336;-26.094;27.994;2023-12-20T13:49:59;28;28;
73973;PMS5003;62336;-26.094;27.994;2023-12-20T13:52:25;26;25;
73973;PMS5003;62336;-26.094;27.994;2023-12-20T13:54:50;29;28;
73973;PMS5003;62336;-26.094;27.994;2023-12-20T13:57:16;27;25;
73973;PMS5003;62336;-26.094;27.994;2023-12-20T13:59:41;31;30;
73973;PMS5003;62336;-26.094;27.994;2023-12-20T14:02:06;32;32;
73973;PMS5003;62336;-26.094;27.994;2023-12-20T14:04:31;39;37;
73973;PMS5003;62336;-26.094;27.994;2023-12-20T14:06:57;32;31;
73973;PMS5003;62336;-26.094;27.994;2023-12-20T14:09:22;29;27;
73973;PMS5003;62336;-26.094;27.994;2023-12-20T14:11:48;34;32;
73973;PMS5003;62336;-26.094;27.994;2023-12-20T14:14:13;34;30;
73973;PMS5003;62336;-26.094;27.994;2023-12-20T14:16:39;32;30;
73973;PMS5003;62336;-26.094;27.994;2023-12-20T14:19:04;29;28;
73973;PMS5003;62336;-26.094;27.994;2023-12-20T14:21:29;30;28;
73973;PMS5003;62336;-26.094;27.994;2023-12-20T14:23:55;30;30;
73973;PMS5003;62336;-26.094;27.994;2023-12-20T14:26:20;26;24;
73973;PMS5003;62336;-26.094;27.994;2023-12-20T14:28:46;29;27;
73973;PMS5003;62336;-26.094;27.994;2023-12-20T14:31:11;27;24;
73973;PMS5003;62336;-26.094;27.994;2023-12-20T14:33:37;25;24;
73973;PMS5003;62336;-26.094;27.994;2023-12-20T14:36:03;26;24;
73973;PMS5003;62336;-26.094;27.994;2023-12-20T14:38:26;27;25;
73973;PMS5003;62336;-26.094;27.994;2023-12-20T14:40:53;32;32;
73973;PMS5003;62336;-26.094;27.994;2023-12-20T14:43:18;26;26;
73973;PMS5003;62336;-26.094;27.994;2023-12-20T14:45:44;27;25;
73973;PMS5003;62336;-26.094;27.994;2023-12-20T14:48:09;28;26;
73973;PMS5003;62336;-26.094;27.994;2023-12-20T14:50:34;27;23;
73973;PMS5003;62336;-26.094;27.994;2023-12-20T14:53:00;26;25;
73973;PMS5003;62336;-26.094;27.994;2023-12-20T14:55:25;24;22;
73973;PMS5003;62336;-26.094;27.994;2023-12-20T14:57:51;25;24;
73973;PMS5003;62336;-26.094;27.994;2023-12-20T15:00:16;28;27;
73973;PMS5003;62336;-26.094;27.994;2023-12-20T15:02:42;30;29;
73973;PMS5003;62336;-26.094;27.994;2023-12-20T15:05:07;28;27;
73973;PMS5003;62336;-26.094;27.994;2023-12-20T15:07:32;31;28;
73973;PMS5003;62336;-26.094;27.994;2023-12-20T15:09:58;27;27;
73973;PMS5003;62336;-26.094;27.994;2023-12-20T15:12:23;26;26;
73973;PMS5003;62336;-26.094;27.994;2023-12-20T15:14:48;25;23;
73973;PMS5003;62336;-26.094;27.994;2023-12-20T15:17:13;29;26;
73973;PMS5003;62336;-26.094;27.994;2023-12-20T15:19:39;21;20;
73973;PMS5003;62336;-26.094;27.994;2023-12-20T15:22:05;30;29;
73973;PMS5003;62336;-26.094;27.994;2023-12-20T15:24:30;34;32;
73973;PMS5003;62336;-26.094;27.994;2023-12-20T15:26:55;28;27;
73973;PMS5003;62336;-26.094;27.994;2023-12-20T15:29:21;31;31;
73973;PMS5003;62336;-26.094;27.994;2023-12-20T15:31:47;31;31;
73973;PMS5003;62336;-26.094;27.994;2023-12-20T15:34:14;32;31;
73973;PMS5003;62336;-26.094;27.994;2023-12-20T15:36:38;27;25;
73973;PMS5003;62336;-26.094;27.994;2023-12-20T15:39:04;27;25;
73973;PMS5003;62336;-26.094;27.994;2023-12-20T15:41:30;31;29;